Time;durP1;ratioP1;P1;durP2;ratioP2;P2;SDS_P1;SDS_P2;PMS_P1;PMS_P2;Temp;Humidity;BMP_temperature;BMP_pressure;BME280_temperature;BME280_humidity;BME280_pressure;Samples;Min_cycle;Max_cycle;Signal;HPM_P1;HPM_P2
2023/12/21 00:00:59;;;;;;;5.07;1.50;;;13.90;70.70;15.40;100442.00;;;;5025303;28;20222;-76
2023/12/21 00:03:26;;;;;;;4.28;1.30;;;13.90;70.80;15.40;100435.00;;;;5022558;28;20205;-76
2023/12/21 00:05:53;;;;;;;3.75;1.15;;;13.90;70.70;15.40;100418.00;;;;5011123;28;20197;-76
2023/12/21 00:08:21;;;;;;;4.78;1.15;;;13.90;70.70;15.40;100427.00;;;;5018070;28;20204;-76
2023/12/21 00:10:48;;;;;;;5.43;1.17;;;13.90;70.70;15.40;100413.00;;;;5019607;28;20842;-76
2023/12/21 00:13:15;;;;;;;4.15;1.95;;;13.90;70.70;15.40;100410.00;;;;5016316;28;20189;-77
2023/12/21 00:15:42;;;;;;;3.40;1.17;;;13.90;70.70;15.40;100404.00;;;;5009106;28;20677;-76
2023/12/21 00:18:09;;;;;;;4.45;1.30;;;13.90;70.60;15.40;100408.00;;;;5007149;28;20224;-76
2023/12/21 00:20:36;;;;;;;5.13;1.00;;;14.00;70.70;15.40;100392.00;;;;5013381;28;20196;-77
2023/12/21 00:23:03;;;;;;;6.90;1.17;;;14.00;70.70;15.40;100402.00;;;;5008053;28;20266;-76
2023/12/21 00:25:31;;;;;;;5.30;0.90;;;14.00;70.70;15.40;100406.00;;;;5009425;28;20207;-76
2023/12/21 00:27:58;;;;;;;3.63;1.10;;;14.00;70.60;15.40;100395.00;;;;5012623;28;20226;-77
2023/12/21 00:30:25;;;;;;;2.78;1.10;;;14.00;70.60;15.40;100390.00;;;;5016490;28;20520;-76
2023/12/21 00:32:52;;;;;;;3.08;0.70;;;14.00;70.60;15.40;100376.00;;;;5023757;28;20698;-76
2023/12/21 00:35:19;;;;;;;2.63;0.80;;;14.00;70.60;15.40;100367.00;;;;5015507;28;20196;-76
2023/12/21 00:37:46;;;;;;;4.38;1.08;;;14.00;70.50;15.50;100362.00;;;;5026955;28;20224;-77
2023/12/21 00:40:14;;;;;;;8.15;1.27;;;14.00;70.50;15.50;100365.00;;;;5019996;28;20310;-77
2023/12/21 00:42:42;;;;;;;7.80;0.90;;;14.00;70.50;15.50;100359.00;;;;5028329;28;20192;-76
2023/12/21 00:45:10;;;;;;;5.15;1.55;;;14.00;70.50;15.50;100360.00;;;;5014860;28;20205;-76
2023/12/21 00:47:37;;;;;;;5.97;0.82;;;14.00;70.50;15.50;100345.00;;;;5019551;28;20578;-76
2023/12/21 00:50:04;;;;;;;3.13;1.30;;;14.00;70.50;15.50;100349.00;;;;5023763;28;20201;-77
2023/12/21 00:52:31;;;;;;;4.63;1.08;;;14.10;70.50;15.50;100337.00;;;;5027204;28;20569;-76
2023/12/21 00:54:58;;;;;;;4.28;1.08;;;14.10;70.40;15.50;100339.00;;;;5021244;28;20200;-76
2023/12/21 00:57:25;;;;;;;4.20;1.10;;;14.10;70.50;15.50;100320.00;;;;5016259;28;20199;-76
2023/12/21 00:59:53;;;;;;;3.60;1.20;;;14.00;70.30;15.50;100315.00;;;;5026705;28;20203;-76
2023/12/21 01:02:20;;;;;;;7.18;1.42;;;14.10;70.40;15.60;100325.00;;;;5028363;28;20207;-76
2023/12/21 01:04:47;;;;;;;4.97;0.80;;;14.10;70.40;15.60;100312.00;;;;5027856;28;20580;-76
2023/12/21 01:07:14;;;;;;;5.55;1.40;;;14.10;70.40;15.60;100311.00;;;;5027781;28;20256;-76
2023/12/21 01:09:41;;;;;;;6.20;1.58;;;14.10;70.40;15.60;100317.00;;;;5013257;28;20200;-76
2023/12/21 01:12:09;;;;;;;4.53;1.52;;;14.10;70.40;15.60;100319.00;;;;5027958;28;20295;-77
2023/12/21 01:14:36;;;;;;;5.40;1.23;;;14.10;70.30;15.60;100324.00;;;;5026145;28;20199;-76
2023/12/21 01:17:05;;;;;;;6.78;1.30;;;14.10;70.30;15.60;100308.00;;;;5021952;28;20204;-76
2023/12/21 01:19:32;;;;;;;4.68;1.20;;;14.10;70.20;15.60;100294.00;;;;5013339;28;20713;-77
2023/12/21 01:21:57;;;;;;;6.18;1.20;;;14.10;70.20;15.60;100290.00;;;;5013020;28;20319;-76
2023/12/21 01:24:24;;;;;;;4.13;1.20;;;14.10;70.20;15.60;100289.00;;;;5008582;28;20646;-76
2023/12/21 01:26:51;;;;;;;3.22;1.10;;;14.10;70.20;15.60;100294.00;;;;5011432;28;20203;-76
2023/12/21 01:29:18;;;;;;;3.25;0.80;;;14.20;70.20;15.60;100283.00;;;;5011528;28;20197;-76
2023/12/21 01:31:45;;;;;;;2.78;0.93;;;14.20;70.20;15.60;100295.00;;;;4999561;28;20607;-76
2023/12/21 01:34:14;;;;;;;4.22;1.25;;;14.20;70.20;15.60;100288.00;;;;5009437;28;20286;-76
2023/12/21 01:36:41;;;;;;;3.78;0.77;;;14.20;70.20;15.70;100287.00;;;;5014618;28;20195;-76
2023/12/21 01:39:08;;;;;;;3.78;1.10;;;14.20;70.20;15.70;100257.00;;;;5016037;28;20290;-76
2023/12/21 01:41:35;;;;;;;6.80;1.40;;;14.10;70.10;15.60;100254.00;;;;5017954;28;20219;-76
2023/12/21 01:44:03;;;;;;;6.32;1.35;;;14.10;70.10;15.70;100256.00;;;;5024270;28;20260;-76
2023/12/21 01:46:30;;;;;;;5.95;1.42;;;14.20;70.00;15.70;100255.00;;;;5016158;28;20636;-76
2023/12/21 01:48:58;;;;;;;3.95;0.90;;;14.20;70.00;15.70;100264.00;;;;5016859;28;20640;-76
2023/12/21 01:51:26;;;;;;;4.05;1.52;;;14.20;70.00;15.70;100250.00;;;;5007510;28;20597;-76
2023/12/21 01:53:54;;;;;;;3.33;1.00;;;14.20;70.00;15.70;100265.00;;;;5015524;28;20200;-76
2023/12/21 01:56:21;;;;;;;4.10;1.05;;;14.20;70.00;15.70;100260.00;;;;5024560;28;20746;-77
2023/12/21 01:58:50;;;;;;;3.85;0.93;;;14.20;70.00;15.70;100259.00;;;;5031266;28;20220;-76
2023/12/21 02:01:18;;;;;;;3.35;0.93;;;14.30;70.00;15.70;100275.00;;;;5021661;28;20221;-76
2023/12/21 02:03:45;;;;;;;4.82;0.95;;;14.20;69.90;15.70;100264.00;;;;5013583;28;20289;-76
2023/12/21 02:06:12;;;;;;;4.63;1.20;;;14.20;69.90;15.70;100246.00;;;;5032161;28;20628;-76
2023/12/21 02:08:41;;;;;;;8.05;1.42;;;14.20;69.90;15.70;100242.00;;;;5031088;28;20213;-76
2023/12/21 02:11:10;;;;;;;3.83;0.93;;;14.20;69.90;15.70;100253.00;;;;5014812;28;20671;-76
2023/12/21 02:13:37;;;;;;;5.05;0.88;;;14.20;69.90;15.70;100254.00;;;;5003338;28;21045;-76
2023/12/21 02:16:10;;;;;;;4.10;1.00;;;14.20;69.80;15.70;100230.00;;;;5012255;28;20200;-76
2023/12/21 02:18:37;;;;;;;4.78;1.20;;;14.30;69.90;15.70;100233.00;;;;5011537;28;20221;-76
2023/12/21 02:21:06;;;;;;;5.57;1.42;;;14.20;70.00;15.70;100216.00;;;;5018065;28;20571;-76
2023/12/21 02:23:39;;;;;;;5.93;1.10;;;14.20;69.80;15.70;100227.00;;;;5028904;28;20200;-76
2023/12/21 02:26:08;;;;;;;6.22;1.48;;;14.30;69.80;15.70;100212.00;;;;5014818;28;20228;-76
2023/12/21 02:28:35;;;;;;;5.55;1.58;;;14.30;69.80;15.70;100204.00;;;;5013015;28;20651;-76
2023/12/21 02:31:02;;;;;;;4.90;1.17;;;14.30;69.80;15.70;100198.00;;;;5011509;28;20207;-76
2023/12/21 02:33:29;;;;;;;3.22;1.30;;;14.30;69.80;15.70;100202.00;;;;5017741;28;20203;-76
2023/12/21 02:35:55;;;;;;;2.88;1.10;;;14.30;69.80;15.70;100203.00;;;;5021433;28;20659;-77
2023/12/21 02:38:23;;;;;;;7.63;1.33;;;14.30;69.80;15.70;100205.00;;;;5029182;28;20698;-75
2023/12/21 02:40:50;;;;;;;5.65;1.52;;;14.30;69.80;15.70;100193.00;;;;4991574;28;20230;-75
2023/12/21 02:43:18;;;;;;;6.07;1.92;;;14.30;69.80;15.70;100183.00;;;;4998033;28;20197;-74
2023/12/21 02:45:45;;;;;;;8.15;0.95;;;14.30;69.80;15.70;100188.00;;;;5018464;28;20192;-74
2023/12/21 02:48:12;;;;;;;6.68;1.13;;;14.20;69.70;15.70;100197.00;;;;5010196;28;20208;-74
2023/12/21 02:50:39;;;;;;;7.57;1.45;;;14.30;69.70;15.70;100201.00;;;;5015857;28;20211;-74
2023/12/21 02:53:06;;;;;;;2.63;1.25;;;14.30;69.70;15.70;100184.00;;;;5029744;28;20200;-74
2023/12/21 02:55:35;;;;;;;5.80;1.42;;;14.30;69.60;15.70;100176.00;;;;5030921;28;20196;-74
2023/12/21 02:58:02;;;;;;;4.40;1.27;;;14.20;69.60;15.70;100175.00;;;;5013475;28;20212;-74
2023/12/21 03:00:30;;;;;;;2.55;1.20;;;14.30;69.60;15.70;100162.00;;;;5010635;28;20243;-77
2023/12/21 03:02:57;;;;;;;7.45;1.70;;;14.30;69.60;15.70;100166.00;;;;4994944;28;20216;-74
2023/12/21 03:05:24;;;;;;;3.08;1.25;;;14.30;69.60;15.70;100149.00;;;;5016746;28;20204;-75
2023/12/21 03:07:52;;;;;;;3.47;1.40;;;14.30;69.60;15.70;100128.00;;;;5022565;28;20671;-74
2023/12/21 03:10:19;;;;;;;2.47;0.90;;;14.30;69.60;15.70;100112.00;;;;5006878;28;20227;-75
2023/12/21 03:12:46;;;;;;;4.65;1.92;;;14.30;69.50;15.70;100120.00;;;;4995008;28;20193;-74
2023/12/21 03:15:14;;;;;;;4.65;1.40;;;14.30;69.50;15.70;100094.00;;;;5010191;28;20201;-75
2023/12/21 03:17:42;;;;;;;4.13;1.38;;;14.30;69.60;15.70;100088.00;;;;5021562;28;20201;-74
2023/12/21 03:20:11;;;;;;;5.60;1.10;;;14.30;69.60;15.70;100069.00;;;;5017047;28;20228;-75
2023/12/21 03:22:37;;;;;;;3.60;1.88;;;14.30;69.60;15.80;100074.00;;;;5009940;28;20204;-75
2023/12/21 03:25:06;;;;;;;4.72;1.35;;;14.30;69.60;15.80;100077.00;;;;5027542;28;20204;-75
2023/12/21 03:27:32;;;;;;;4.57;1.08;;;14.30;69.60;15.80;100079.00;;;;5025918;28;20205;-75
2023/12/21 03:29:59;;;;;;;5.30;1.50;;;14.30;69.50;15.80;100064.00;;;;5011884;28;20578;-75
2023/12/21 03:32:27;;;;;;;5.75;1.17;;;14.30;69.50;15.80;100053.00;;;;5020686;28;20197;-75
2023/12/21 03:34:56;;;;;;;5.15;1.30;;;14.30;69.50;15.80;100065.00;;;;5017318;28;20338;-75
2023/12/21 03:37:27;;;;;;;5.03;1.60;;;14.30;69.50;15.80;100047.00;;;;5010491;28;20201;-75
2023/12/21 03:39:54;;;;;;;5.75;1.33;;;14.30;69.50;15.80;100063.00;;;;5026718;28;20314;-75
2023/12/21 03:42:21;;;;;;;4.00;1.52;;;14.30;69.50;15.80;100061.00;;;;5024712;28;20232;-75
2023/12/21 03:44:48;;;;;;;5.65;1.20;;;14.30;69.50;15.80;100052.00;;;;5025399;28;20203;-75
2023/12/21 03:47:15;;;;;;;5.90;1.58;;;14.30;69.50;15.80;100054.00;;;;5018335;28;20204;-75
2023/12/21 03:49:42;;;;;;;4.55;1.65;;;14.30;69.50;15.80;100043.00;;;;5009565;28;20205;-76
2023/12/21 03:52:11;;;;;;;7.85;1.88;;;14.30;69.50;15.80;100030.00;;;;5010093;28;20712;-76
2023/12/21 03:54:38;;;;;;;5.20;1.25;;;14.30;69.40;15.80;100044.00;;;;5010087;28;20213;-75
2023/12/21 03:57:05;;;;;;;6.60;1.33;;;14.30;69.50;15.80;100050.00;;;;5007977;28;20197;-75
2023/12/21 03:59:34;;;;;;;3.20;1.30;;;14.30;69.50;15.80;100050.00;;;;5008963;28;20702;-75
2023/12/21 04:02:02;;;;;;;5.70;1.50;;;14.30;69.50;15.80;100026.00;;;;5008846;28;20242;-75
2023/12/21 04:04:31;;;;;;;7.60;1.50;;;14.40;69.50;15.80;100023.00;;;;5016546;28;20201;-75
2023/12/21 04:06:58;;;;;;;8.60;1.23;;;14.40;69.50;15.80;100010.00;;;;5009220;28;20208;-76
2023/12/21 04:09:26;;;;;;;3.63;1.15;;;14.30;69.40;15.80;100001.00;;;;5008549;28;20205;-76
2023/12/21 04:11:53;;;;;;;7.38;1.75;;;14.30;69.40;15.80;100009.00;;;;5005896;28;20263;-76
2023/12/21 04:14:20;;;;;;;6.47;1.75;;;14.30;69.50;15.80;100004.00;;;;5019241;28;20504;-76
2023/12/21 04:16:48;;;;;;;7.90;1.40;;;14.30;69.40;15.80;99999.00;;;;5012711;28;20184;-75
2023/12/21 04:19:15;;;;;;;6.82;1.15;;;14.30;69.50;15.80;99978.00;;;;5016247;28;20220;-76
2023/12/21 04:21:43;;;;;;;5.90;1.58;;;14.30;69.50;15.80;99970.00;;;;4995751;28;20193;-75
2023/12/21 04:24:10;;;;;;;3.22;1.50;;;14.30;69.50;15.80;99951.00;;;;5004682;28;20617;-76
2023/12/21 04:26:39;;;;;;;6.53;1.40;;;14.30;69.50;15.80;99930.00;;;;5027813;28;20682;-75
2023/12/21 04:29:06;;;;;;;6.80;1.17;;;14.30;69.50;15.80;99931.00;;;;5009553;28;20663;-76
2023/12/21 04:31:33;;;;;;;4.85;1.05;;;14.30;69.50;15.80;99929.00;;;;5009492;28;20259;-75
2023/12/21 04:34:00;;;;;;;5.80;1.73;;;14.30;69.50;15.80;99942.00;;;;5021735;28;20211;-75
2023/12/21 04:36:28;;;;;;;4.15;1.48;;;14.30;69.50;15.80;99927.00;;;;5023438;28;20659;-76
2023/12/21 04:38:56;;;;;;;8.35;1.55;;;14.30;69.50;15.80;99901.00;;;;5009655;28;20196;-75
2023/12/21 04:41:23;;;;;;;4.45;1.23;;;14.30;69.50;15.80;99871.00;;;;4997325;28;20217;-75
2023/12/21 04:43:51;;;;;;;6.68;1.63;;;14.30;69.50;15.80;99870.00;;;;5010358;28;20205;-75
2023/12/21 04:46:19;;;;;;;3.95;1.48;;;14.30;69.50;15.80;99884.00;;;;5009622;28;20189;-76
2023/12/21 04:48:46;;;;;;;6.57;1.35;;;14.30;69.50;15.80;99895.00;;;;5019320;28;20250;-75
2023/12/21 04:51:16;;;;;;;5.80;1.00;;;14.30;69.50;15.70;99895.00;;;;5019401;28;20201;-75
2023/12/21 04:53:43;;;;;;;4.55;1.08;;;14.30;69.50;15.70;99895.00;;;;5016741;28;20659;-75
2023/12/21 04:56:10;;;;;;;5.15;1.05;;;14.30;69.50;15.70;99893.00;;;;5008819;28;20220;-76
2023/12/21 04:58:38;;;;;;;5.88;1.13;;;14.30;69.50;15.70;99898.00;;;;5014011;28;20200;-75
2023/12/21 05:01:08;;;;;;;4.00;1.23;;;14.30;69.50;15.70;99905.00;;;;5021226;28;20225;-75
2023/12/21 05:03:35;;;;;;;3.95;1.00;;;14.30;69.50;15.70;99906.00;;;;5017672;28;20196;-75
2023/12/21 05:06:03;;;;;;;2.55;0.70;;;14.40;69.70;15.70;99898.00;;;;5007098;28;20213;-75
2023/12/21 05:08:30;;;;;;;2.42;0.70;;;14.30;69.50;15.70;99879.00;;;;4993906;28;20193;-75
2023/12/21 05:10:57;;;;;;;2.92;0.60;;;14.40;69.70;15.70;99851.00;;;;5028185;28;20556;-75
2023/12/21 05:13:24;;;;;;;7.22;1.65;;;14.40;69.60;15.70;99856.00;;;;5020487;28;20204;-75
2023/12/21 05:15:51;;;;;;;4.63;1.10;;;14.40;69.60;15.70;99860.00;;;;5013013;28;20219;-75
2023/12/21 05:18:19;;;;;;;4.68;0.90;;;14.40;69.60;15.80;99867.00;;;;5012351;28;20192;-75
2023/12/21 05:20:46;;;;;;;3.15;0.70;;;14.40;69.60;15.80;99856.00;;;;5027564;28;20608;-76
2023/12/21 05:23:13;;;;;;;4.43;1.20;;;14.40;69.60;15.80;99845.00;;;;5020531;28;20206;-76
2023/12/21 05:25:40;;;;;;;1.77;0.82;;;14.40;69.60;15.70;99840.00;;;;5024838;28;20207;-75
2023/12/21 05:28:07;;;;;;;2.78;0.85;;;14.40;69.60;15.80;99845.00;;;;4996802;28;20205;-75
2023/12/21 05:30:34;;;;;;;4.07;0.80;;;14.40;69.60;15.80;99835.00;;;;5008911;28;20267;-76
2023/12/21 05:33:01;;;;;;;4.15;1.25;;;14.40;69.60;15.70;99860.00;;;;5012854;28;20558;-75
2023/12/21 05:35:29;;;;;;;3.63;1.08;;;14.40;69.60;15.70;99858.00;;;;5026404;28;20203;-75
2023/12/21 05:37:56;;;;;;;4.25;1.08;;;14.40;69.70;15.70;99850.00;;;;4988976;28;20205;-75
2023/12/21 05:40:23;;;;;;;4.20;0.75;;;14.40;69.70;15.70;99849.00;;;;5008741;28;20244;-75
2023/12/21 05:42:50;;;;;;;3.40;0.90;;;14.40;69.70;15.70;99841.00;;;;5016328;28;20207;-75
2023/12/21 05:45:17;;;;;;;2.65;0.70;;;14.30;69.70;15.70;99842.00;;;;5008379;28;20675;-76
2023/12/21 05:47:44;;;;;;;5.63;1.70;;;14.30;69.70;15.70;99842.00;;;;5007601;28;20205;-76
2023/12/21 05:50:11;;;;;;;2.97;0.88;;;14.40;69.80;15.70;99824.00;;;;5007382;28;20204;-76
2023/12/21 05:52:39;;;;;;;3.90;1.02;;;14.40;69.80;15.70;99831.00;;;;5009833;28;20206;-76
2023/12/21 05:55:14;;;;;;;4.57;0.90;;;14.40;69.80;15.70;99834.00;;;;5023643;28;20230;-76
2023/12/21 05:57:41;;;;;;;7.18;1.00;;;14.40;69.80;15.70;99825.00;;;;5001730;28;20200;-75
2023/12/21 06:00:09;;;;;;;3.58;0.85;;;14.40;69.90;15.70;99826.00;;;;5005152;28;20229;-76
2023/12/21 06:02:36;;;;;;;4.05;0.73;;;14.40;70.00;15.60;99836.00;;;;5023842;28;20196;-76
2023/12/21 06:05:03;;;;;;;3.47;0.73;;;14.30;69.90;15.60;99850.00;;;;4999372;28;20683;-76
2023/12/21 06:07:30;;;;;;;2.67;0.60;;;14.30;69.90;15.60;99839.00;;;;4997504;28;20204;-76
2023/12/21 06:09:58;;;;;;;3.45;0.65;;;14.30;70.00;15.60;99807.00;;;;5026933;28;20189;-76
2023/12/21 06:12:25;;;;;;;5.38;0.93;;;14.30;70.10;15.60;99807.00;;;;5019407;28;20213;-76
2023/12/21 06:14:52;;;;;;;3.38;0.73;;;14.30;70.20;15.60;99800.00;;;;5025450;28;20208;-75
2023/12/21 06:17:19;;;;;;;3.00;1.38;;;14.30;70.20;15.60;99799.00;;;;5017272;28;20239;-76
2023/12/21 06:19:46;;;;;;;3.47;0.77;;;14.30;70.30;15.60;99794.00;;;;5010195;28;20701;-76
2023/12/21 06:22:15;;;;;;;3.47;0.90;;;14.20;70.60;15.60;99787.00;;;;5022540;28;20215;-76
2023/12/21 06:24:42;;;;;;;5.47;0.80;;;14.30;70.40;15.60;99770.00;;;;5010977;28;20200;-76
2023/12/21 06:27:10;;;;;;;2.67;0.77;;;14.30;70.40;15.60;99770.00;;;;5017464;28;20524;-76
2023/12/21 06:29:37;;;;;;;4.38;0.90;;;14.30;70.40;15.60;99774.00;;;;4999471;28;20746;-76
2023/12/21 06:32:06;;;;;;;1.75;1.00;;;14.20;70.40;15.60;99752.00;;;;5020660;28;20210;-75
2023/12/21 06:34:33;;;;;;;3.55;1.08;;;14.30;70.60;15.60;99748.00;;;;5004741;28;20193;-75
2023/12/21 06:37:01;;;;;;;3.42;1.00;;;14.20;70.50;15.60;99751.00;;;;4992308;28;20652;-75
2023/12/21 06:39:27;;;;;;;3.28;1.10;;;14.20;70.50;15.60;99728.00;;;;5010741;28;20570;-75
2023/12/21 06:41:54;;;;;;;2.35;0.90;;;14.20;70.50;15.60;99728.00;;;;5006751;28;20237;-75
2023/12/21 06:44:23;;;;;;;3.33;0.85;;;14.20;70.50;15.60;99726.00;;;;5004051;28;20228;-75
2023/12/21 06:46:50;;;;;;;3.70;1.08;;;14.20;70.50;15.60;99711.00;;;;5006636;28;20197;-76
2023/12/21 06:49:18;;;;;;;4.18;1.23;;;14.20;70.50;15.60;99698.00;;;;5006583;28;20224;-76
2023/12/21 06:51:45;;;;;;;3.40;1.00;;;14.20;70.50;15.60;99699.00;;;;5018333;28;20200;-75
2023/12/21 06:54:13;;;;;;;10.27;1.75;;;14.20;70.50;15.60;99686.00;;;;5006318;28;20653;-75
2023/12/21 06:56:39;;;;;;;4.85;1.15;;;14.20;70.50;15.60;99681.00;;;;5010821;28;20200;-76
2023/12/21 06:59:06;;;;;;;3.53;1.30;;;14.20;70.50;15.60;99669.00;;;;5012730;28;20212;-75
2023/12/21 07:01:35;;;;;;;3.97;1.00;;;14.20;70.50;15.60;99675.00;;;;5009487;28;20400;-75
2023/12/21 07:04:02;;;;;;;3.15;0.82;;;14.20;70.50;15.60;99668.00;;;;5005411;28;20608;-75
2023/12/21 07:06:29;;;;;;;7.47;1.30;;;14.20;70.50;15.60;99665.00;;;;5014298;28;20204;-74
2023/12/21 07:08:56;;;;;;;3.53;0.80;;;14.20;70.60;15.60;99639.00;;;;5007451;28;20204;-75
2023/12/21 07:11:23;;;;;;;3.45;1.13;;;14.20;70.50;15.60;99643.00;;;;5014379;28;20204;-75
2023/12/21 07:13:51;;;;;;;6.55;1.23;;;14.20;70.50;15.60;99636.00;;;;5028829;28;20250;-74
2023/12/21 07:16:18;;;;;;;6.18;1.00;;;14.20;70.50;15.60;99631.00;;;;5029711;28;21078;-75
2023/12/21 07:18:46;;;;;;;4.78;0.82;;;14.20;70.50;15.60;99623.00;;;;5029906;28;20572;-75
2023/12/21 07:21:13;;;;;;;2.92;1.17;;;14.20;70.50;15.60;99633.00;;;;5020617;28;20225;-76
2023/12/21 07:23:40;;;;;;;6.70;1.33;;;14.20;70.50;15.60;99622.00;;;;5013924;28;20994;-75
2023/12/21 07:26:09;;;;;;;3.03;0.70;;;14.20;70.50;15.60;99641.00;;;;5025342;28;20212;-75
2023/12/21 07:28:36;;;;;;;4.05;0.82;;;14.30;70.60;15.60;99631.00;;;;5020665;28;20200;-75
2023/12/21 07:31:04;;;;;;;3.50;0.85;;;14.20;70.50;15.60;99637.00;;;;5025427;28;20203;-75
2023/12/21 07:33:31;;;;;;;3.70;1.27;;;14.20;70.50;15.50;99623.00;;;;5030294;28;20185;-75
2023/12/21 07:36:01;;;;;;;4.18;0.70;;;14.20;70.50;15.50;99629.00;;;;5025565;28;20223;-75
2023/12/21 07:38:28;;;;;;;2.80;0.82;;;14.20;70.50;15.60;99632.00;;;;5026446;28;20193;-76
2023/12/21 07:40:55;;;;;;;2.90;0.75;;;14.20;70.50;15.50;99615.00;;;;5012029;28;20637;-76
2023/12/21 07:43:22;;;;;;;4.22;1.27;;;14.20;70.70;15.50;99620.00;;;;5009062;28;20208;-76
2023/12/21 07:45:49;;;;;;;4.40;1.27;;;14.20;70.70;15.50;99611.00;;;;5029876;28;20200;-75
2023/12/21 07:48:16;;;;;;;3.67;1.33;;;14.20;70.70;15.50;99606.00;;;;5027865;28;20200;-76
2023/12/21 07:50:43;;;;;;;3.75;1.17;;;14.20;70.80;15.50;99612.00;;;;5029835;28;20192;-75
2023/12/21 07:53:11;;;;;;;6.82;1.35;;;14.10;70.90;15.50;99605.00;;;;5027997;28;20655;-75
2023/12/21 07:55:38;;;;;;;5.50;1.65;;;14.10;70.90;15.50;99607.00;;;;5010393;28;20204;-76
2023/12/21 07:58:06;;;;;;;5.88;1.30;;;14.10;70.90;15.50;99618.00;;;;5028896;28;20188;-75
2023/12/21 08:00:33;;;;;;;3.45;1.00;;;14.10;71.00;15.40;99611.00;;;;5023979;28;20216;-76
2023/12/21 08:03:00;;;;;;;2.88;1.10;;;14.10;71.00;15.40;99623.00;;;;5024316;28;20211;-75
2023/12/21 08:05:27;;;;;;;4.85;1.27;;;14.10;71.00;15.40;99612.00;;;;5030046;28;20227;-76
2023/12/21 08:07:54;;;;;;;4.68;1.08;;;14.10;71.20;15.40;99614.00;;;;5028968;28;20287;-76
2023/12/21 08:10:22;;;;;;;1.95;0.75;;;14.10;71.20;15.40;99605.00;;;;5029037;28;20196;-76
2023/12/21 08:12:49;;;;;;;4.70;1.50;;;14.00;71.30;15.40;99603.00;;;;5026215;28;20197;-75
2023/12/21 08:15:18;;;;;;;3.53;0.93;;;14.00;71.50;15.30;99604.00;;;;5027380;28;20201;-76
2023/12/21 08:17:47;;;;;;;3.17;1.17;;;14.00;71.40;15.30;99594.00;;;;5029697;28;20307;-75
2023/12/21 08:20:15;;;;;;;6.82;1.60;;;14.00;71.40;15.30;99609.00;;;;5029415;28;20220;-75
2023/12/21 08:22:42;;;;;;;4.28;1.02;;;14.00;71.50;15.30;99590.00;;;;5027019;28;20215;-76
2023/12/21 08:25:09;;;;;;;4.03;1.30;;;14.00;71.50;15.30;99583.00;;;;5028875;28;20202;-75
2023/12/21 08:27:37;;;;;;;4.47;1.30;;;14.00;71.50;15.30;99579.00;;;;5029316;28;20200;-75
2023/12/21 08:30:06;;;;;;;6.55;1.45;;;14.00;71.60;15.30;99565.00;;;;5028417;28;20585;-76
2023/12/21 08:32:33;;;;;;;5.50;1.05;;;14.00;71.60;15.30;99555.00;;;;5023729;28;20201;-75
2023/12/21 08:35:01;;;;;;;4.68;1.20;;;14.00;71.70;15.30;99551.00;;;;5026613;28;21042;-75
2023/12/21 08:37:28;;;;;;;3.67;1.20;;;14.00;71.70;15.30;99539.00;;;;5018283;28;20205;-76
2023/12/21 08:39:55;;;;;;;7.32;1.00;;;14.00;71.80;15.30;99548.00;;;;5008450;28;20201;-75
2023/12/21 08:42:22;;;;;;;4.55;1.08;;;14.00;71.70;15.30;99556.00;;;;5009128;28;20324;-76
2023/12/21 08:44:50;;;;;;;4.15;1.30;;;14.00;71.80;15.40;99545.00;;;;5014637;28;20205;-75
2023/12/21 08:47:17;;;;;;;3.85;1.25;;;14.00;71.80;15.40;99549.00;;;;5015753;28;20208;-75
2023/12/21 08:49:44;;;;;;;8.23;1.33;;;14.00;72.10;15.40;99537.00;;;;5019067;28;20209;-76
2023/12/21 08:52:11;;;;;;;3.63;0.90;;;14.00;72.00;15.40;99535.00;;;;5027599;28;20197;-76
2023/12/21 08:54:38;;;;;;;5.07;1.05;;;14.00;71.90;15.40;99544.00;;;;5026935;28;20729;-76
2023/12/21 08:57:05;;;;;;;4.70;0.90;;;14.10;72.10;15.40;99539.00;;;;5027749;28;20212;-76
2023/12/21 08:59:32;;;;;;;5.88;0.77;;;14.10;72.20;15.50;99515.00;;;;5020780;28;20201;-75
2023/12/21 09:02:01;;;;;;;4.82;0.93;;;14.10;72.20;15.50;99529.00;;;;5012676;28;20240;-76
2023/12/21 09:04:27;;;;;;;1.73;0.40;;;14.10;72.30;15.50;99525.00;;;;5021352;28;20208;-75
2023/12/21 09:06:54;;;;;;;1.45;0.43;;;14.10;72.30;15.60;99502.00;;;;5027137;28;20196;-75
2023/12/21 09:09:21;;;;;;;5.20;0.80;;;14.20;72.40;15.60;99511.00;;;;5012265;28;20247;-75
2023/12/21 09:11:49;;;;;;;2.83;0.45;;;14.20;72.30;15.60;99511.00;;;;5015607;28;20196;-76
2023/12/21 09:14:16;;;;;;;1.70;0.50;;;14.20;72.20;15.60;99512.00;;;;5026965;28;20207;-76
2023/12/21 09:16:43;;;;;;;2.08;0.70;;;14.30;72.20;15.60;99503.00;;;;5027857;28;20196;-76
2023/12/21 09:19:11;;;;;;;3.05;0.70;;;14.30;72.30;15.60;99496.00;;;;5028420;28;20215;-76
2023/12/21 09:21:39;;;;;;;1.52;0.45;;;14.30;72.20;15.60;99478.00;;;;5027830;28;20235;-76
2023/12/21 09:24:06;;;;;;;1.83;0.60;;;14.30;72.00;15.60;99505.00;;;;5026403;28;20204;-75
2023/12/21 09:26:34;;;;;;;4.68;0.80;;;14.30;72.10;15.70;99501.00;;;;5027885;28;20212;-75
2023/12/21 09:29:04;;;;;;;5.05;0.90;;;14.40;72.10;15.70;99494.00;;;;5024402;28;20204;-76
2023/12/21 09:31:31;;;;;;;6.38;1.08;;;14.40;72.20;15.70;99499.00;;;;5028532;28;20242;-76
2023/12/21 09:33:59;;;;;;;3.70;1.02;;;14.40;72.10;15.70;99493.00;;;;5019579;28;20251;-76
2023/12/21 09:36:27;;;;;;;2.70;0.65;;;14.40;72.10;15.70;99497.00;;;;5013243;28;20201;-76
2023/12/21 09:38:54;;;;;;;3.05;0.80;;;14.40;72.10;15.70;99497.00;;;;5024563;28;20207;-75
2023/12/21 09:41:21;;;;;;;4.40;1.05;;;14.40;72.10;15.70;99513.00;;;;5018499;28;20236;-75
2023/12/21 09:43:53;;;;;;;1.75;0.43;;;14.50;72.20;15.70;99498.00;;;;5012558;28;20678;-75
2023/12/21 09:46:21;;;;;;;8.65;0.70;;;14.50;72.80;15.80;99494.00;;;;5013459;28;20212;-76
2023/12/21 09:48:49;;;;;;;2.28;0.50;;;14.50;72.20;15.80;99497.00;;;;5007194;28;20296;-75
2023/12/21 09:51:18;;;;;;;5.78;1.40;;;14.60;72.20;15.90;99477.00;;;;5010365;28;20208;-76
2023/12/21 09:53:48;;;;;;;2.92;0.43;;;14.60;72.20;15.90;99482.00;;;;5021052;28;21034;-75
2023/12/21 09:56:18;;;;;;;5.18;0.68;;;14.60;72.20;15.90;99506.00;;;;5029165;28;20730;-75
2023/12/21 09:58:48;;;;;;;4.20;0.73;;;14.60;72.20;15.90;99504.00;;;;5016742;28;20204;-74
2023/12/21 10:01:15;;;;;;;2.53;0.47;;;14.70;72.30;15.90;99489.00;;;;5023889;28;20224;-75
2023/12/21 10:03:44;;;;;;;2.15;0.77;;;14.70;72.20;15.90;99491.00;;;;5029972;28;20204;-74
2023/12/21 10:06:12;;;;;;;6.38;1.08;;;14.70;72.20;15.90;99490.00;;;;5031677;28;20201;-74
2023/12/21 10:08:41;;;;;;;2.20;0.40;;;14.70;72.10;15.80;99493.00;;;;5027357;28;20215;-75
2023/12/21 10:11:10;;;;;;;2.80;0.60;;;14.70;71.90;15.80;99473.00;;;;5012114;28;20208;-75
2023/12/21 10:13:38;;;;;;;5.60;0.70;;;14.70;72.10;15.80;99488.00;;;;5019625;28;20209;-75
2023/12/21 10:16:06;;;;;;;1.85;0.40;;;14.70;72.10;15.80;99489.00;;;;5024270;28;20200;-75
2023/12/21 10:18:34;;;;;;;4.68;0.85;;;14.70;72.20;15.80;99492.00;;;;5012889;28;20196;-75
2023/12/21 10:21:02;;;;;;;2.35;0.43;;;14.70;72.10;15.80;99490.00;;;;5011166;28;20770;-75
2023/12/21 10:23:30;;;;;;;3.25;0.43;;;14.70;72.20;15.80;99489.00;;;;5012550;28;20229;-75
2023/12/21 10:25:58;;;;;;;2.67;0.50;;;14.70;72.20;15.80;99485.00;;;;5021475;28;20664;-75
2023/12/21 10:28:26;;;;;;;2.58;0.50;;;14.70;72.30;15.80;99476.00;;;;5009566;28;20397;-75
2023/12/21 10:30:55;;;;;;;3.55;0.70;;;14.70;72.30;15.90;99468.00;;;;5011846;28;20291;-75
2023/12/21 10:33:21;;;;;;;3.72;0.60;;;14.70;72.30;15.90;99463.00;;;;5017746;28;20211;-75
2023/12/21 10:35:48;;;;;;;6.13;1.08;;;14.70;72.30;15.90;99448.00;;;;5011937;28;20292;-75
2023/12/21 10:38:16;;;;;;;2.58;0.73;;;14.70;72.30;16.00;99439.00;;;;5012063;28;20193;-75
2023/12/21 10:40:45;;;;;;;1.88;0.35;;;14.80;72.40;16.00;99467.00;;;;5018148;28;20228;-75
2023/12/21 10:43:15;;;;;;;3.53;0.65;;;14.80;72.40;16.00;99448.00;;;;5031359;28;20250;-75
2023/12/21 10:45:47;;;;;;;6.32;1.08;;;14.80;72.40;16.00;99441.00;;;;5016301;28;20227;-74
2023/12/21 10:48:16;;;;;;;5.38;1.30;;;14.90;72.30;16.10;99438.00;;;;4991526;28;20206;-75
2023/12/21 10:50:46;;;;;;;3.58;0.70;;;14.90;72.20;16.10;99438.00;;;;4990691;28;20298;-76
2023/12/21 10:53:14;;;;;;;4.13;0.60;;;14.90;72.20;16.20;99432.00;;;;4996455;28;20411;-76